sensor_id;sensor_type;location;lat;lon;timestamp;pressure;altitude;pressure_sealevel;temperature;humidity
22104;BME280;11218;48.886;9.426;2022-12-07T00:01:42;98117.75;;;3.68;97.84
22104;BME280;11218;48.886;9.426;2022-12-07T00:04:12;98117.94;;;3.73;97.40
22104;BME280;11218;48.886;9.426;2022-12-07T00:06:42;98121.22;;;3.75;97.46
22104;BME280;11218;48.886;9.426;2022-12-07T00:09:14;98121.41;;;3.74;96.97
22104;BME280;11218;48.886;9.426;2022-12-07T00:11:42;98117.56;;;3.70;97.24
22104;BME280;11218;48.886;9.426;2022-12-07T00:14:12;98117.13;;;3.73;97.24
22104;BME280;11218;48.886;9.426;2022-12-07T00:16:42;98122.69;;;3.71;97.16
22104;BME280;11218;48.886;9.426;2022-12-07T00:19:11;98117.94;;;3.73;96.54
22104;BME280;11218;48.886;9.426;2022-12-07T00:21:40;98120.63;;;3.67;97.30
22104;BME280;11218;48.886;9.426;2022-12-07T00:24:10;98114.91;;;3.70;97.30
22104;BME280;11218;48.886;9.426;2022-12-07T00:26:41;98120.00;;;3.71;97.51
22104;BME280;11218;48.886;9.426;2022-12-07T00:29:15;98112.84;;;3.65;97.58
22104;BME280;11218;48.886;9.426;2022-12-07T00:31:43;98119.41;;;3.69;97.66
22104;BME280;11218;48.886;9.426;2022-12-07T00:34:13;98114.28;;;3.68;97.42
22104;BME280;11218;48.886;9.426;2022-12-07T00:36:41;98116.09;;;3.74;96.80
22104;BME280;11218;48.886;9.426;2022-12-07T00:39:10;98111.41;;;3.69;96.91
22104;BME280;11218;48.886;9.426;2022-12-07T00:41:39;98111.81;;;3.66;96.84
22104;BME280;11218;48.886;9.426;2022-12-07T00:44:08;98113.25;;;3.62;96.74
22104;BME280;11218;48.886;9.426;2022-12-07T00:46:36;98113.25;;;3.69;97.33
22104;BME280;11218;48.886;9.426;2022-12-07T00:49:04;98116.72;;;3.62;97.32
22104;BME280;11218;48.886;9.426;2022-12-07T00:51:32;98118.16;;;3.58;97.51
22104;BME280;11218;48.886;9.426;2022-12-07T00:54:01;98112.00;;;3.58;97.38
22104;BME280;11218;48.886;9.426;2022-12-07T00:56:29;98115.91;;;3.55;97.78
22104;BME280;11218;48.886;9.426;2022-12-07T00:59:00;98116.53;;;3.57;98.10
22104;BME280;11218;48.886;9.426;2022-12-07T01:01:31;98114.47;;;3.59;97.89
22104;BME280;11218;48.886;9.426;2022-12-07T01:04:00;98121.63;;;3.59;97.63
22104;BME280;11218;48.886;9.426;2022-12-07T01:06:30;98119.59;;;3.54;98.05
22104;BME280;11218;48.886;9.426;2022-12-07T01:08:58;98116.31;;;3.52;97.95
22104;BME280;11218;48.886;9.426;2022-12-07T01:11:28;98125.31;;;3.51;97.66
22104;BME280;11218;48.886;9.426;2022-12-07T01:13:59;98121.00;;;3.50;97.80
22104;BME280;11218;48.886;9.426;2022-12-07T01:16:29;98126.13;;;3.52;97.30
22104;BME280;11218;48.886;9.426;2022-12-07T01:18:59;98126.75;;;3.47;97.49
22104;BME280;11218;48.886;9.426;2022-12-07T01:21:29;98128.38;;;3.48;97.30
22104;BME280;11218;48.886;9.426;2022-12-07T01:23:59;98121.00;;;3.44;97.69
22104;BME280;11218;48.886;9.426;2022-12-07T01:26:27;98128.38;;;3.48;97.32
22104;BME280;11218;48.886;9.426;2022-12-07T01:28:55;98119.16;;;3.44;97.08
22104;BME280;11218;48.886;9.426;2022-12-07T01:31:27;98119.75;;;3.40;97.19
22104;BME280;11218;48.886;9.426;2022-12-07T01:33:58;98122.03;;;3.43;97.13
22104;BME280;11218;48.886;9.426;2022-12-07T01:36:28;98126.13;;;3.45;97.51
22104;BME280;11218;48.886;9.426;2022-12-07T01:38:58;98127.75;;;3.46;96.54
22104;BME280;11218;48.886;9.426;2022-12-07T01:41:28;98126.53;;;3.49;97.17
22104;BME280;11218;48.886;9.426;2022-12-07T01:44:15;98127.75;;;3.46;96.82
22104;BME280;11218;48.886;9.426;2022-12-07T01:46:46;98131.44;;;3.45;96.97
22104;BME280;11218;48.886;9.426;2022-12-07T01:49:24;98132.47;;;3.44;96.82
22104;BME280;11218;48.886;9.426;2022-12-07T01:51:58;98125.50;;;3.43;96.83
22104;BME280;11218;48.886;9.426;2022-12-07T01:54:29;98137.38;;;3.47;96.63
22104;BME280;11218;48.886;9.426;2022-12-07T01:56:58;98138.22;;;3.54;96.41
22104;BME280;11218;48.886;9.426;2022-12-07T01:59:27;98131.84;;;3.49;96.18
22104;BME280;11218;48.886;9.426;2022-12-07T02:01:56;98139.03;;;3.48;96.34
22104;BME280;11218;48.886;9.426;2022-12-07T02:04:24;98136.34;;;3.48;96.22
22104;BME280;11218;48.886;9.426;2022-12-07T02:06:53;98136.16;;;3.50;96.45
22104;BME280;11218;48.886;9.426;2022-12-07T02:09:22;98131.03;;;3.48;96.10
22104;BME280;11218;48.886;9.426;2022-12-07T02:11:51;98140.66;;;3.56;96.43
22104;BME280;11218;48.886;9.426;2022-12-07T02:14:20;98127.97;;;3.51;96.00
22104;BME280;11218;48.886;9.426;2022-12-07T02:17:02;98130.00;;;3.49;96.14
22104;BME280;11218;48.886;9.426;2022-12-07T02:26:23;98120.19;;;3.50;96.12
22104;BME280;11218;48.886;9.426;2022-12-07T02:29:10;98122.03;;;3.56;96.44
22104;BME280;11218;48.886;9.426;2022-12-07T02:31:44;98117.75;;;3.55;96.02
22104;BME280;11218;48.886;9.426;2022-12-07T02:34:20;98118.75;;;3.54;96.27
22104;BME280;11218;48.886;9.426;2022-12-07T02:36:54;98114.25;;;3.54;96.26
22104;BME280;11218;48.886;9.426;2022-12-07T02:39:30;98108.94;;;3.54;96.80
22104;BME280;11218;48.886;9.426;2022-12-07T02:42:02;98114.47;;;3.53;96.18
22104;BME280;11218;48.886;9.426;2022-12-07T02:44:37;98108.13;;;3.54;96.45
22104;BME280;11218;48.886;9.426;2022-12-07T02:47:11;98111.41;;;3.56;96.90
22104;BME280;11218;48.886;9.426;2022-12-07T02:49:41;98101.78;;;3.55;96.45
22104;BME280;11218;48.886;9.426;2022-12-07T02:52:10;98102.81;;;3.54;96.75
22104;BME280;11218;48.886;9.426;2022-12-07T02:54:38;98099.31;;;3.53;96.53
22104;BME280;11218;48.886;9.426;2022-12-07T02:57:25;98098.09;;;3.56;96.64
22104;BME280;11218;48.886;9.426;2022-12-07T03:00:03;98096.25;;;3.56;96.22
22104;BME280;11218;48.886;9.426;2022-12-07T03:02:39;98095.44;;;3.56;96.63
22104;BME280;11218;48.886;9.426;2022-12-07T03:05:29;98097.06;;;3.57;96.89
22104;BME280;11218;48.886;9.426;2022-12-07T03:08:02;98098.09;;;3.56;96.77
22104;BME280;11218;48.886;9.426;2022-12-07T03:10:38;98090.31;;;3.54;96.85
22104;BME280;11218;48.886;9.426;2022-12-07T03:13:11;98091.13;;;3.55;96.22
22104;BME280;11218;48.886;9.426;2022-12-07T03:15:46;98095.63;;;3.54;96.30
22104;BME280;11218;48.886;9.426;2022-12-07T03:18:20;98098.09;;;3.56;96.51
22104;BME280;11218;48.886;9.426;2022-12-07T03:20:51;98095.63;;;3.54;96.22
22104;BME280;11218;48.886;9.426;2022-12-07T03:23:22;98097.28;;;3.55;96.43
22104;BME280;11218;48.886;9.426;2022-12-07T03:25:56;98103.41;;;3.56;96.38
22104;BME280;11218;48.886;9.426;2022-12-07T03:28:31;98091.34;;;3.53;96.37
22104;BME280;11218;48.886;9.426;2022-12-07T03:31:05;98096.03;;;3.51;96.17
22104;BME280;11218;48.886;9.426;2022-12-07T03:33:42;98096.88;;;3.52;96.23
22104;BME280;11218;48.886;9.426;2022-12-07T03:36:17;98087.25;;;3.51;96.33
22104;BME280;11218;48.886;9.426;2022-12-07T03:38:50;98104.44;;;3.48;96.28
22104;BME280;11218;48.886;9.426;2022-12-07T03:41:24;98094.81;;;3.47;96.13
22104;BME280;11218;48.886;9.426;2022-12-07T03:43:54;98092.34;;;3.46;96.40
22104;BME280;11218;48.886;9.426;2022-12-07T03:46:31;98082.53;;;3.40;96.26
22104;BME280;11218;48.886;9.426;2022-12-07T03:49:08;98082.31;;;3.41;96.43
22104;BME280;11218;48.886;9.426;2022-12-07T03:51:43;98085.38;;;3.38;96.13
22104;BME280;11218;48.886;9.426;2022-12-07T03:54:17;98083.13;;;3.35;95.63
22104;BME280;11218;48.886;9.426;2022-12-07T03:56:47;98083.72;;;3.30;95.94
22104;BME280;11218;48.886;9.426;2022-12-07T03:59:17;98083.53;;;3.32;95.98
22104;BME280;11218;48.886;9.426;2022-12-07T04:01:52;98075.13;;;3.28;95.77
22104;BME280;11218;48.886;9.426;2022-12-07T04:04:21;98071.25;;;3.24;95.83
22104;BME280;11218;48.886;9.426;2022-12-07T04:06:49;98067.34;;;3.20;96.16
22104;BME280;11218;48.886;9.426;2022-12-07T04:09:18;98064.88;;;3.19;96.31
22104;BME280;11218;48.886;9.426;2022-12-07T04:11:46;98056.69;;;3.14;95.89
22104;BME280;11218;48.886;9.426;2022-12-07T04:14:14;98048.09;;;3.12;95.86
22104;BME280;11218;48.886;9.426;2022-12-07T04:16:52;98044.00;;;3.09;95.73
22104;BME280;11218;48.886;9.426;2022-12-07T04:19:24;98038.50;;;3.11;95.28
22104;BME280;11218;48.886;9.426;2022-12-07T04:21:53;98038.28;;;3.06;94.18
22104;BME280;11218;48.886;9.426;2022-12-07T04:24:22;98028.44;;;3.00;94.55
22104;BME280;11218;48.886;9.426;2022-12-07T04:26:50;98038.47;;;2.97;94.80
22104;BME280;11218;48.886;9.426;2022-12-07T04:29:19;98042.56;;;3.07;94.35
22104;BME280;11218;48.886;9.426;2022-12-07T04:31:47;98038.06;;;2.94;95.28
22104;BME280;11218;48.886;9.426;2022-12-07T04:34:18;98036.03;;;3.09;93.91
22104;BME280;11218;48.886;9.426;2022-12-07T04:36:47;98044.22;;;3.14;91.96
22104;BME280;11218;48.886;9.426;2022-12-07T04:39:19;98040.13;;;3.05;92.41
22104;BME280;11218;48.886;9.426;2022-12-07T04:41:48;98034.81;;;3.05;92.68
22104;BME280;11218;48.886;9.426;2022-12-07T04:44:17;98034.81;;;3.05;93.39
22104;BME280;11218;48.886;9.426;2022-12-07T04:46:45;98031.53;;;3.03;93.85
22104;BME280;11218;48.886;9.426;2022-12-07T04:49:14;98021.50;;;3.05;93.90
22104;BME280;11218;48.886;9.426;2022-12-07T04:51:44;98025.19;;;3.04;93.64
22104;BME280;11218;48.886;9.426;2022-12-07T04:54:12;98033.16;;;3.04;93.66
22104;BME280;11218;48.886;9.426;2022-12-07T04:56:41;98046.88;;;3.08;94.38
22104;BME280;11218;48.886;9.426;2022-12-07T04:59:09;98061.19;;;3.13;92.70
22104;BME280;11218;48.886;9.426;2022-12-07T05:01:38;98063.03;;;3.13;92.58
22104;BME280;11218;48.886;9.426;2022-12-07T05:04:06;98053.00;;;3.02;93.23
22104;BME280;11218;48.886;9.426;2022-12-07T05:06:34;98049.72;;;3.00;93.23
22104;BME280;11218;48.886;9.426;2022-12-07T05:09:04;98054.84;;;3.01;93.88
22104;BME280;11218;48.886;9.426;2022-12-07T05:11:33;98064.25;;;3.04;93.90
22104;BME280;11218;48.886;9.426;2022-12-07T05:14:10;98056.28;;;3.04;93.79
22104;BME280;11218;48.886;9.426;2022-12-07T05:16:39;98068.53;;;2.98;94.23
22104;BME280;11218;48.886;9.426;2022-12-07T05:19:08;98066.50;;;2.93;93.52
22104;BME280;11218;48.886;9.426;2022-12-07T05:21:37;98065.22;;;2.76;94.14
22104;BME280;11218;48.886;9.426;2022-12-07T05:24:08;98059.09;;;2.76;94.35
22104;BME280;11218;48.886;9.426;2022-12-07T05:26:37;98054.56;;;2.70;94.95
22104;BME280;11218;48.886;9.426;2022-12-07T05:32:49;98051.47;;;2.66;95.74
22104;BME280;11218;48.886;9.426;2022-12-07T05:35:17;98058.63;;;2.66;95.42
22104;BME280;11218;48.886;9.426;2022-12-07T05:37:46;98068.63;;;2.57;95.88
22104;BME280;11218;48.886;9.426;2022-12-07T05:40:15;98063.31;;;2.57;96.17
22104;BME280;11218;48.886;9.426;2022-12-07T05:42:43;98063.91;;;2.59;95.85
22104;BME280;11218;48.886;9.426;2022-12-07T05:45:11;98074.16;;;2.62;96.77
22104;BME280;11218;48.886;9.426;2022-12-07T05:47:39;98067.16;;;2.54;96.58
22104;BME280;11218;48.886;9.426;2022-12-07T05:50:08;98074.94;;;2.56;96.71
22104;BME280;11218;48.886;9.426;2022-12-07T05:52:36;98080.47;;;2.61;96.96
22104;BME280;11218;48.886;9.426;2022-12-07T05:55:05;98080.47;;;2.61;96.90
22104;BME280;11218;48.886;9.426;2022-12-07T05:57:35;98066.38;;;2.60;97.39
22104;BME280;11218;48.886;9.426;2022-12-07T06:00:04;98074.56;;;2.66;97.70
22104;BME280;11218;48.886;9.426;2022-12-07T06:02:31;98072.13;;;2.64;97.57
22104;BME280;11218;48.886;9.426;2022-12-07T06:05:00;98080.31;;;2.69;97.60
22104;BME280;11218;48.886;9.426;2022-12-07T06:07:28;98062.34;;;2.71;97.45
22104;BME280;11218;48.886;9.426;2022-12-07T06:09:56;98072.56;;;2.74;98.08
22104;BME280;11218;48.886;9.426;2022-12-07T06:12:26;98067.88;;;2.76;97.40
22104;BME280;11218;48.886;9.426;2022-12-07T06:15:04;98070.94;;;2.80;97.83
22104;BME280;11218;48.886;9.426;2022-12-07T06:17:32;98065.22;;;2.76;97.82
22104;BME280;11218;48.886;9.426;2022-12-07T06:20:08;98064.41;;;2.76;97.27
22104;BME280;11218;48.886;9.426;2022-12-07T06:22:37;98067.66;;;2.78;97.20
22104;BME280;11218;48.886;9.426;2022-12-07T06:25:05;98059.28;;;2.74;97.46
22104;BME280;11218;48.886;9.426;2022-12-07T06:27:34;98062.56;;;2.76;97.68
22104;BME280;11218;48.886;9.426;2022-12-07T06:30:05;98057.44;;;2.75;97.37
22104;BME280;11218;48.886;9.426;2022-12-07T06:32:36;98067.25;;;2.74;97.35
22104;BME280;11218;48.886;9.426;2022-12-07T06:35:04;98070.09;;;2.73;97.73
22104;BME280;11218;48.886;9.426;2022-12-07T06:37:34;98075.84;;;2.76;97.13
22104;BME280;11218;48.886;9.426;2022-12-07T06:40:02;98075.63;;;2.71;96.56
22104;BME280;11218;48.886;9.426;2022-12-07T06:42:31;98086.28;;;2.78;97.54
22104;BME280;11218;48.886;9.426;2022-12-07T06:44:59;98077.47;;;2.77;97.64
22104;BME280;11218;48.886;9.426;2022-12-07T06:47:29;98076.66;;;2.77;97.07
22104;BME280;11218;48.886;9.426;2022-12-07T06:50:07;98079.75;;;2.80;96.93
22104;BME280;11218;48.886;9.426;2022-12-07T06:52:35;98085.47;;;2.84;97.54
22104;BME280;11218;48.886;9.426;2022-12-07T06:55:04;98080.16;;;2.84;96.85
22104;BME280;11218;48.886;9.426;2022-12-07T06:57:32;98077.72;;;2.82;97.25
22104;BME280;11218;48.886;9.426;2022-12-07T07:00:01;98084.03;;;2.81;97.14
22104;BME280;11218;48.886;9.426;2022-12-07T07:02:31;98073.22;;;2.83;96.61
22104;BME280;11218;48.886;9.426;2022-12-07T07:04:59;98067.06;;;2.82;96.88
22104;BME280;11218;48.886;9.426;2022-12-07T07:07:27;98088.13;;;2.84;97.29
22104;BME280;11218;48.886;9.426;2022-12-07T07:09:55;98075.88;;;2.83;96.68
22104;BME280;11218;48.886;9.426;2022-12-07T07:12:23;98080.38;;;2.82;96.92
22104;BME280;11218;48.886;9.426;2022-12-07T07:14:51;98087.13;;;2.85;96.58
22104;BME280;11218;48.886;9.426;2022-12-07T07:17:19;98088.34;;;2.89;96.38
22104;BME280;11218;48.886;9.426;2022-12-07T07:19:49;98088.56;;;2.87;96.59
22104;BME280;11218;48.886;9.426;2022-12-07T07:22:16;98087.53;;;2.88;95.96
22104;BME280;11218;48.886;9.426;2022-12-07T07:24:45;98088.34;;;2.89;95.63
22104;BME280;11218;48.886;9.426;2022-12-07T07:27:13;98097.78;;;2.91;96.46
22104;BME280;11218;48.886;9.426;2022-12-07T07:29:41;98094.09;;;2.92;95.79
22104;BME280;11218;48.886;9.426;2022-12-07T07:32:09;98089.41;;;2.94;95.95
22104;BME280;11218;48.886;9.426;2022-12-07T07:34:37;98085.94;;;2.94;95.52
22104;BME280;11218;48.886;9.426;2022-12-07T07:37:06;98095.53;;;2.95;95.37
22104;BME280;11218;48.886;9.426;2022-12-07T07:39:34;98091.88;;;2.96;95.02
22104;BME280;11218;48.886;9.426;2022-12-07T07:42:02;98092.69;;;2.96;95.17
22104;BME280;11218;48.886;9.426;2022-12-07T07:44:30;98090.84;;;2.97;94.68
22104;BME280;11218;48.886;9.426;2022-12-07T07:47:01;98097.56;;;3.00;94.59
22104;BME280;11218;48.886;9.426;2022-12-07T07:49:29;98102.88;;;3.00;94.09
22104;BME280;11218;48.886;9.426;2022-12-07T07:51:57;98092.47;;;3.05;93.80
22104;BME280;11218;48.886;9.426;2022-12-07T07:54:28;98100.84;;;3.02;93.68
22104;BME280;11218;48.886;9.426;2022-12-07T07:56:55;98108.63;;;3.03;93.38
22104;BME280;11218;48.886;9.426;2022-12-07T07:59:23;98099.81;;;3.03;93.40
22104;BME280;11218;48.886;9.426;2022-12-07T08:01:51;98106.78;;;3.04;92.81
22104;BME280;11218;48.886;9.426;2022-12-07T08:04:20;98105.75;;;3.05;93.14
22104;BME280;11218;48.886;9.426;2022-12-07T08:06:48;98111.91;;;3.05;92.56
22104;BME280;11218;48.886;9.426;2022-12-07T08:09:16;98106.19;;;3.08;92.67
22104;BME280;11218;48.886;9.426;2022-12-07T08:11:45;98108.03;;;3.08;91.89
22104;BME280;11218;48.886;9.426;2022-12-07T08:14:13;98110.28;;;3.11;92.05
22104;BME280;11218;48.886;9.426;2022-12-07T08:16:41;98109.47;;;3.17;91.83
22104;BME280;11218;48.886;9.426;2022-12-07T08:19:09;98106.81;;;3.17;91.25
22104;BME280;11218;48.886;9.426;2022-12-07T08:21:37;98106.63;;;3.18;91.00
22104;BME280;11218;48.886;9.426;2022-12-07T08:24:07;98107.25;;;3.20;90.86
22104;BME280;11218;48.886;9.426;2022-12-07T08:26:35;98109.50;;;3.23;90.71
22104;BME280;11218;48.886;9.426;2022-12-07T08:29:04;98115.22;;;3.27;90.31
22104;BME280;11218;48.886;9.426;2022-12-07T08:31:33;98111.56;;;3.28;90.05
22104;BME280;11218;48.886;9.426;2022-12-07T08:34:01;98108.69;;;3.29;89.65
22104;BME280;11218;48.886;9.426;2022-12-07T08:36:29;98114.44;;;3.33;89.47
22104;BME280;11218;48.886;9.426;2022-12-07T08:38:57;98112.38;;;3.35;89.15
22104;BME280;11218;48.886;9.426;2022-12-07T08:41:45;98110.34;;;3.37;88.97
22104;BME280;11218;48.886;9.426;2022-12-07T08:44:14;98115.25;;;3.40;88.70
22104;BME280;11218;48.886;9.426;2022-12-07T08:46:46;98110.34;;;3.44;88.83
22104;BME280;11218;48.886;9.426;2022-12-07T08:49:19;98110.38;;;3.50;88.84
22104;BME280;11218;48.886;9.426;2022-12-07T08:51:49;98110.78;;;3.54;88.47
22104;BME280;11218;48.886;9.426;2022-12-07T08:54:18;98113.84;;;3.57;87.81
22104;BME280;11218;48.886;9.426;2022-12-07T08:56:47;98116.31;;;3.59;87.80
22104;BME280;11218;48.886;9.426;2022-12-07T08:59:26;98116.94;;;3.61;87.50
22104;BME280;11218;48.886;9.426;2022-12-07T09:01:54;98119.00;;;3.66;87.17
22104;BME280;11218;48.886;9.426;2022-12-07T09:04:23;98110.81;;;3.67;86.81
22104;BME280;11218;48.886;9.426;2022-12-07T09:06:51;98113.63;;;3.72;86.88
22104;BME280;11218;48.886;9.426;2022-12-07T09:09:19;98110.56;;;3.75;86.47
22104;BME280;11218;48.886;9.426;2022-12-07T09:11:47;98110.97;;;3.79;86.22
22104;BME280;11218;48.886;9.426;2022-12-07T09:14:14;98109.34;;;3.84;86.14
22104;BME280;11218;48.886;9.426;2022-12-07T09:16:45;98109.97;;;3.86;85.50
22104;BME280;11218;48.886;9.426;2022-12-07T09:19:13;98109.34;;;3.91;85.79
22104;BME280;11218;48.886;9.426;2022-12-07T09:21:41;98111.59;;;3.94;85.19
22104;BME280;11218;48.886;9.426;2022-12-07T09:24:09;98110.78;;;4.00;84.85
22104;BME280;11218;48.886;9.426;2022-12-07T09:26:37;98115.88;;;4.08;84.03
22104;BME280;11218;48.886;9.426;2022-12-07T09:29:07;98114.25;;;4.07;82.98
22104;BME280;11218;48.886;9.426;2022-12-07T09:31:36;98114.88;;;4.09;82.96
22104;BME280;11218;48.886;9.426;2022-12-07T09:34:06;98107.28;;;4.13;82.98
22104;BME280;11218;48.886;9.426;2022-12-07T09:36:34;98112.81;;;4.18;81.54
22104;BME280;11218;48.886;9.426;2022-12-07T09:39:03;98116.09;;;4.20;81.38
22104;BME280;11218;48.886;9.426;2022-12-07T09:41:32;98114.25;;;4.20;81.22
22104;BME280;11218;48.886;9.426;2022-12-07T09:44:04;98114.63;;;4.24;81.21
22104;BME280;11218;48.886;9.426;2022-12-07T09:46:35;98108.69;;;4.28;80.61
22104;BME280;11218;48.886;9.426;2022-12-07T09:49:11;98110.72;;;4.33;80.70
22104;BME280;11218;48.886;9.426;2022-12-07T09:51:40;98104.78;;;4.38;80.37
22104;BME280;11218;48.886;9.426;2022-12-07T09:54:09;98101.31;;;4.37;80.58
22104;BME280;11218;48.886;9.426;2022-12-07T09:56:40;98105.78;;;4.43;79.33
22104;BME280;11218;48.886;9.426;2022-12-07T09:59:13;98106.63;;;4.44;80.29
22104;BME280;11218;48.886;9.426;2022-12-07T10:01:42;98091.44;;;4.44;79.61
22104;BME280;11218;48.886;9.426;2022-12-07T10:04:13;98093.72;;;4.41;79.65
22104;BME280;11218;48.886;9.426;2022-12-07T10:06:43;98096.97;;;4.43;80.05
22104;BME280;11218;48.886;9.426;2022-12-07T10:09:13;98093.28;;;4.44;80.02
22104;BME280;11218;48.886;9.426;2022-12-07T10:12:01;98086.13;;;4.44;80.34
22104;BME280;11218;48.886;9.426;2022-12-07T10:14:31;98075.63;;;4.49;80.71
22104;BME280;11218;48.886;9.426;2022-12-07T10:17:35;98088.38;;;4.41;80.70
22104;BME280;11218;48.886;9.426;2022-12-07T10:20:13;98082.78;;;4.49;80.87
22104;BME280;11218;48.886;9.426;2022-12-07T10:22:54;98094.13;;;4.38;81.17
22104;BME280;11218;48.886;9.426;2022-12-07T10:25:26;98088.78;;;4.38;81.30
22104;BME280;11218;48.886;9.426;2022-12-07T10:27:58;98077.53;;;4.36;81.28
22104;BME280;11218;48.886;9.426;2022-12-07T10:30:27;98080.78;;;4.44;81.04
22104;BME280;11218;48.886;9.426;2022-12-07T10:32:55;98079.56;;;4.40;81.36
22104;BME280;11218;48.886;9.426;2022-12-07T10:35:27;98072.78;;;4.44;81.15
22104;BME280;11218;48.886;9.426;2022-12-07T10:37:58;98075.06;;;4.41;80.70
22104;BME280;11218;48.886;9.426;2022-12-07T10:40:31;98076.28;;;4.45;80.36
22104;BME280;11218;48.886;9.426;2022-12-07T10:43:05;98068.69;;;4.42;80.92
22104;BME280;11218;48.886;9.426;2022-12-07T10:45:35;98065.63;;;4.45;80.95
22104;BME280;11218;48.886;9.426;2022-12-07T10:48:33;98070.75;;;4.40;81.67
22104;BME280;11218;48.886;9.426;2022-12-07T10:51:10;98063.19;;;4.37;82.17
22104;BME280;11218;48.886;9.426;2022-12-07T10:53:50;98058.84;;;4.42;81.79
22104;BME280;11218;48.886;9.426;2022-12-07T10:56:43;98054.78;;;4.40;81.83
22104;BME280;11218;48.886;9.426;2022-12-07T10:59:39;98057.63;;;4.38;82.60
22104;BME280;11218;48.886;9.426;2022-12-07T11:02:24;98057.00;;;4.43;83.19
22104;BME280;11218;48.886;9.426;2022-12-07T11:05:02;98049.19;;;4.48;82.13
22104;BME280;11218;48.886;9.426;2022-12-07T11:07:41;98048.00;;;4.44;82.43
22104;BME280;11218;48.886;9.426;2022-12-07T11:10:17;98047.16;;;4.43;83.34
22104;BME280;11218;48.886;9.426;2022-12-07T11:12:57;98049.38;;;4.53;81.62
22104;BME280;11218;48.886;9.426;2022-12-07T11:15:34;98034.81;;;4.49;81.76
22104;BME280;11218;48.886;9.426;2022-12-07T11:18:11;98043.03;;;4.47;82.55
22104;BME280;11218;48.886;9.426;2022-12-07T11:20:45;98039.06;;;4.63;80.88
22104;BME280;11218;48.886;9.426;2022-12-07T11:23:28;98036.22;;;4.58;82.08
22104;BME280;11218;48.886;9.426;2022-12-07T11:26:06;98035.81;;;4.61;81.58
22104;BME280;11218;48.886;9.426;2022-12-07T11:28:49;98033.13;;;4.61;82.28
22104;BME280;11218;48.886;9.426;2022-12-07T11:31:26;98030.41;;;4.74;81.69
22104;BME280;11218;48.886;9.426;2022-12-07T11:34:00;98026.94;;;4.74;82.21
22104;BME280;11218;48.886;9.426;2022-12-07T11:36:37;98019.34;;;4.71;82.55
22104;BME280;11218;48.886;9.426;2022-12-07T11:39:18;98022.81;;;4.78;83.17
22104;BME280;11218;48.886;9.426;2022-12-07T11:41:52;98024.28;;;4.67;83.34
22104;BME280;11218;48.886;9.426;2022-12-07T11:44:29;98014.22;;;4.69;84.56
22104;BME280;11218;48.886;9.426;2022-12-07T11:47:05;98011.53;;;4.76;84.48
22104;BME280;11218;48.886;9.426;2022-12-07T11:49:41;98010.31;;;4.72;85.12
22104;BME280;11218;48.886;9.426;2022-12-07T11:52:18;98008.88;;;4.76;84.79
22104;BME280;11218;48.886;9.426;2022-12-07T11:54:51;98010.31;;;4.72;85.29
22104;BME280;11218;48.886;9.426;2022-12-07T11:57:24;98014.63;;;4.73;85.02
22104;BME280;11218;48.886;9.426;2022-12-07T12:00:00;98013.59;;;4.74;84.81
22104;BME280;11218;48.886;9.426;2022-12-07T12:02:34;97999.06;;;4.70;85.50
22104;BME280;11218;48.886;9.426;2022-12-07T12:05:13;98004.59;;;4.68;85.43
22104;BME280;11218;48.886;9.426;2022-12-07T12:07:44;97997.03;;;4.65;85.19
22104;BME280;11218;48.886;9.426;2022-12-07T12:10:46;97992.31;;;4.67;85.04
22104;BME280;11218;48.886;9.426;2022-12-07T12:13:40;97993.72;;;4.70;84.90
22104;BME280;11218;48.886;9.426;2022-12-07T12:19:35;97992.13;;;4.62;85.55
22104;BME280;11218;48.886;9.426;2022-12-07T12:22:12;97991.94;;;4.57;86.19
22104;BME280;11218;48.886;9.426;2022-12-07T12:24:42;97982.91;;;4.58;85.55
22104;BME280;11218;48.886;9.426;2022-12-07T12:27:20;97983.53;;;4.60;85.05
22104;BME280;11218;48.886;9.426;2022-12-07T12:29:53;97979.44;;;4.57;84.96
22104;BME280;11218;48.886;9.426;2022-12-07T12:32:27;97992.34;;;4.60;85.13
22104;BME280;11218;48.886;9.426;2022-12-07T12:35:20;97985.75;;;4.63;84.54
22104;BME280;11218;48.886;9.426;2022-12-07T12:37:52;97982.09;;;4.57;85.80
22104;BME280;11218;48.886;9.426;2022-12-07T12:40:43;97983.50;;;4.67;85.55
22104;BME280;11218;48.886;9.426;2022-12-07T12:43:52;97980.59;;;4.68;84.41
22104;BME280;11218;48.886;9.426;2022-12-07T12:46:51;97976.34;;;4.60;85.61
22104;BME280;11218;48.886;9.426;2022-12-07T12:49:44;97980.00;;;4.66;84.99
22104;BME280;11218;48.886;9.426;2022-12-07T12:52:52;97975.91;;;4.63;85.18
22104;BME280;11218;48.886;9.426;2022-12-07T12:58:43;97965.03;;;4.65;86.08
22104;BME280;11218;48.886;9.426;2022-12-07T13:01:33;97968.78;;;4.57;85.36
22104;BME280;11218;48.886;9.426;2022-12-07T13:04:22;97962.22;;;4.53;86.65
22104;BME280;11218;48.886;9.426;2022-12-07T13:06:52;97964.09;;;4.53;86.38
22104;BME280;11218;48.886;9.426;2022-12-07T13:09:24;97958.75;;;4.53;85.82
22104;BME280;11218;48.886;9.426;2022-12-07T13:12:00;97958.34;;;4.49;86.64
22104;BME280;11218;48.886;9.426;2022-12-07T13:14:56;97952.19;;;4.55;85.33
22104;BME280;11218;48.886;9.426;2022-12-07T13:17:54;97954.84;;;4.55;85.45
22104;BME280;11218;48.886;9.426;2022-12-07T13:20:45;97947.88;;;4.54;85.44
22104;BME280;11218;48.886;9.426;2022-12-07T13:23:18;97949.91;;;4.59;85.08
22104;BME280;11218;48.886;9.426;2022-12-07T13:25:54;97949.13;;;4.52;85.67
22104;BME280;11218;48.886;9.426;2022-12-07T13:28:25;97944.00;;;4.50;85.78
22104;BME280;11218;48.886;9.426;2022-12-07T13:31:07;97949.75;;;4.47;86.42
22104;BME280;11218;48.886;9.426;2022-12-07T13:33:39;97944.63;;;4.46;86.90
22104;BME280;11218;48.886;9.426;2022-12-07T13:36:18;97944.19;;;4.55;85.60
22104;BME280;11218;48.886;9.426;2022-12-07T13:38:51;97946.66;;;4.50;85.74
22104;BME280;11218;48.886;9.426;2022-12-07T13:41:23;97939.91;;;4.48;85.67
22104;BME280;11218;48.886;9.426;2022-12-07T13:43:59;97948.38;;;4.45;86.86
22104;BME280;11218;48.886;9.426;2022-12-07T13:46:40;97944.63;;;4.46;86.77
22104;BME280;11218;48.886;9.426;2022-12-07T13:49:28;97941.56;;;4.49;86.34
22104;BME280;11218;48.886;9.426;2022-12-07T13:52:14;97940.59;;;4.43;87.13
22104;BME280;11218;48.886;9.426;2022-12-07T13:54:45;97941.75;;;4.47;87.08
22104;BME280;11218;48.886;9.426;2022-12-07T13:57:14;97939.28;;;4.52;85.50